sensor_id;sensor_type;location;lat;lon;timestamp;P1;durP1;ratioP1;P2;durP2;ratioP2
61642;SDS011;47551;52.506;4.678;2022-09-14T00:00:19;5.37;;;1.90;;
61642;SDS011;47551;52.506;4.678;2022-09-14T00:00:39;4.25;;;1.80;;
61642;SDS011;47551;52.506;4.678;2022-09-14T00:01:05;4.90;;;2.00;;
61642;SDS011;47551;52.506;4.678;2022-09-14T00:01:26;5.47;;;2.15;;
61642;SDS011;47551;52.506;4.678;2022-09-14T00:01:47;4.70;;;1.90;;
61642;SDS011;47551;52.506;4.678;2022-09-14T00:02:07;4.83;;;1.90;;
61642;SDS011;47551;52.506;4.678;2022-09-14T00:02:28;4.28;;;1.80;;
61642;SDS011;47551;52.506;4.678;2022-09-14T00:02:51;4.47;;;2.00;;
61642;SDS011;47551;52.506;4.678;2022-09-14T00:03:23;4.70;;;1.80;;
61642;SDS011;47551;52.506;4.678;2022-09-14T00:03:44;4.47;;;2.03;;
61642;SDS011;47551;52.506;4.678;2022-09-14T00:04:05;4.33;;;1.93;;
61642;SDS011;47551;52.506;4.678;2022-09-14T00:04:26;3.78;;;1.90;;
61642;SDS011;47551;52.506;4.678;2022-09-14T00:04:46;3.90;;;1.97;;
61642;SDS011;47551;52.506;4.678;2022-09-14T00:05:06;5.32;;;2.10;;
61642;SDS011;47551;52.506;4.678;2022-09-14T00:05:27;4.43;;;2.00;;
61642;SDS011;47551;52.506;4.678;2022-09-14T00:05:47;3.97;;;1.80;;
61642;SDS011;47551;52.506;4.678;2022-09-14T00:06:08;4.20;;;1.95;;
61642;SDS011;47551;52.506;4.678;2022-09-14T00:06:29;5.25;;;2.00;;
61642;SDS011;47551;52.506;4.678;2022-09-14T00:06:49;5.45;;;1.90;;
61642;SDS011;47551;52.506;4.678;2022-09-14T00:07:10;5.68;;;2.17;;
61642;SDS011;47551;52.506;4.678;2022-09-14T00:07:30;4.53;;;2.20;;
61642;SDS011;47551;52.506;4.678;2022-09-14T00:07:50;4.00;;;2.10;;
61642;SDS011;47551;52.506;4.678;2022-09-14T00:08:11;4.00;;;1.90;;
61642;SDS011;47551;52.506;4.678;2022-09-14T00:08:32;3.97;;;2.10;;
61642;SDS011;47551;52.506;4.678;2022-09-14T00:08:53;4.87;;;2.03;;
61642;SDS011;47551;52.506;4.678;2022-09-14T00:09:14;4.68;;;2.00;;
61642;SDS011;47551;52.506;4.678;2022-09-14T00:09:35;4.13;;;1.90;;
61642;SDS011;47551;52.506;4.678;2022-09-14T00:09:55;4.73;;;2.17;;
61642;SDS011;47551;52.506;4.678;2022-09-14T00:10:15;4.83;;;2.10;;
61642;SDS011;47551;52.506;4.678;2022-09-14T00:10:42;4.63;;;2.00;;
61642;SDS011;47551;52.506;4.678;2022-09-14T00:11:07;4.35;;;1.95;;
61642;SDS011;47551;52.506;4.678;2022-09-14T00:11:28;4.82;;;1.90;;
61642;SDS011;47551;52.506;4.678;2022-09-14T00:11:49;5.32;;;2.10;;
61642;SDS011;47551;52.506;4.678;2022-09-14T00:12:10;4.97;;;2.05;;
61642;SDS011;47551;52.506;4.678;2022-09-14T00:12:30;4.70;;;1.90;;
61642;SDS011;47551;52.506;4.678;2022-09-14T00:12:50;4.57;;;1.93;;
61642;SDS011;47551;52.506;4.678;2022-09-14T00:13:11;4.70;;;2.10;;
61642;SDS011;47551;52.506;4.678;2022-09-14T00:13:31;5.10;;;2.10;;
61642;SDS011;47551;52.506;4.678;2022-09-14T00:13:52;5.00;;;2.03;;
61642;SDS011;47551;52.506;4.678;2022-09-14T00:14:16;4.78;;;2.00;;
61642;SDS011;47551;52.506;4.678;2022-09-14T00:14:36;5.03;;;2.13;;
61642;SDS011;47551;52.506;4.678;2022-09-14T00:14:57;3.57;;;1.97;;
61642;SDS011;47551;52.506;4.678;2022-09-14T00:15:17;4.83;;;2.07;;
61642;SDS011;47551;52.506;4.678;2022-09-14T00:15:40;4.40;;;2.00;;
61642;SDS011;47551;52.506;4.678;2022-09-14T00:16:06;4.32;;;1.98;;
61642;SDS011;47551;52.506;4.678;2022-09-14T00:16:29;4.03;;;1.80;;
61642;SDS011;47551;52.506;4.678;2022-09-14T00:16:49;4.97;;;2.00;;
61642;SDS011;47551;52.506;4.678;2022-09-14T00:17:20;5.00;;;2.10;;
61642;SDS011;47551;52.506;4.678;2022-09-14T00:17:40;4.68;;;1.90;;
61642;SDS011;47551;52.506;4.678;2022-09-14T00:18:00;4.20;;;1.88;;
61642;SDS011;47551;52.506;4.678;2022-09-14T00:18:20;3.93;;;1.87;;
61642;SDS011;47551;52.506;4.678;2022-09-14T00:18:40;4.97;;;2.00;;
61642;SDS011;47551;52.506;4.678;2022-09-14T00:19:05;4.70;;;2.10;;
61642;SDS011;47551;52.506;4.678;2022-09-14T00:19:26;4.40;;;2.10;;
61642;SDS011;47551;52.506;4.678;2022-09-14T00:19:46;4.43;;;2.10;;
61642;SDS011;47551;52.506;4.678;2022-09-14T00:20:07;5.40;;;2.10;;
61642;SDS011;47551;52.506;4.678;2022-09-14T00:20:28;4.13;;;1.88;;
61642;SDS011;47551;52.506;4.678;2022-09-14T00:20:48;4.72;;;2.00;;
61642;SDS011;47551;52.506;4.678;2022-09-14T00:21:08;3.73;;;2.00;;
61642;SDS011;47551;52.506;4.678;2022-09-14T00:21:29;4.10;;;1.90;;
61642;SDS011;47551;52.506;4.678;2022-09-14T00:21:50;4.33;;;2.10;;
61642;SDS011;47551;52.506;4.678;2022-09-14T00:22:11;4.65;;;2.10;;
61642;SDS011;47551;52.506;4.678;2022-09-14T00:22:31;4.47;;;2.00;;
61642;SDS011;47551;52.506;4.678;2022-09-14T00:22:51;4.33;;;2.07;;
61642;SDS011;47551;52.506;4.678;2022-09-14T00:23:11;4.75;;;2.28;;
61642;SDS011;47551;52.506;4.678;2022-09-14T00:23:33;5.07;;;2.10;;
61642;SDS011;47551;52.506;4.678;2022-09-14T00:23:53;4.95;;;1.88;;
61642;SDS011;47551;52.506;4.678;2022-09-14T00:24:14;4.70;;;2.00;;
61642;SDS011;47551;52.506;4.678;2022-09-14T00:24:34;5.43;;;2.10;;
61642;SDS011;47551;52.506;4.678;2022-09-14T00:24:54;4.50;;;2.00;;
61642;SDS011;47551;52.506;4.678;2022-09-14T00:25:14;4.75;;;2.10;;
61642;SDS011;47551;52.506;4.678;2022-09-14T00:25:34;5.37;;;2.10;;
61642;SDS011;47551;52.506;4.678;2022-09-14T00:25:54;5.33;;;2.00;;
61642;SDS011;47551;52.506;4.678;2022-09-14T00:26:18;4.73;;;2.00;;
61642;SDS011;47551;52.506;4.678;2022-09-14T00:26:39;5.05;;;2.20;;
61642;SDS011;47551;52.506;4.678;2022-09-14T00:26:59;5.23;;;2.10;;
61642;SDS011;47551;52.506;4.678;2022-09-14T00:27:21;4.60;;;1.90;;
61642;SDS011;47551;52.506;4.678;2022-09-14T00:27:41;4.33;;;1.90;;
61642;SDS011;47551;52.506;4.678;2022-09-14T00:28:01;4.23;;;1.90;;
61642;SDS011;47551;52.506;4.678;2022-09-14T00:28:22;4.37;;;2.13;;
61642;SDS011;47551;52.506;4.678;2022-09-14T00:28:44;4.82;;;2.20;;
61642;SDS011;47551;52.506;4.678;2022-09-14T00:29:05;3.65;;;1.73;;
61642;SDS011;47551;52.506;4.678;2022-09-14T00:29:25;5.10;;;1.80;;
61642;SDS011;47551;52.506;4.678;2022-09-14T00:29:46;4.27;;;1.90;;
61642;SDS011;47551;52.506;4.678;2022-09-14T00:30:07;4.03;;;2.00;;
61642;SDS011;47551;52.506;4.678;2022-09-14T00:30:27;3.95;;;1.90;;
61642;SDS011;47551;52.506;4.678;2022-09-14T00:30:50;5.45;;;1.98;;
61642;SDS011;47551;52.506;4.678;2022-09-14T00:31:11;6.43;;;1.90;;
61642;SDS011;47551;52.506;4.678;2022-09-14T00:31:32;4.57;;;1.80;;
61642;SDS011;47551;52.506;4.678;2022-09-14T00:31:52;5.32;;;2.00;;
61642;SDS011;47551;52.506;4.678;2022-09-14T00:32:12;4.97;;;2.00;;
61642;SDS011;47551;52.506;4.678;2022-09-14T00:32:33;4.53;;;1.80;;
61642;SDS011;47551;52.506;4.678;2022-09-14T00:32:53;5.23;;;1.93;;
61642;SDS011;47551;52.506;4.678;2022-09-14T00:33:13;4.90;;;2.10;;
61642;SDS011;47551;52.506;4.678;2022-09-14T00:33:34;5.30;;;1.98;;
61642;SDS011;47551;52.506;4.678;2022-09-14T00:33:54;5.00;;;1.90;;
61642;SDS011;47551;52.506;4.678;2022-09-14T00:34:14;4.80;;;1.97;;
61642;SDS011;47551;52.506;4.678;2022-09-14T00:34:35;4.90;;;2.03;;
61642;SDS011;47551;52.506;4.678;2022-09-14T00:34:55;5.45;;;1.95;;
61642;SDS011;47551;52.506;4.678;2022-09-14T00:35:16;3.87;;;1.80;;
61642;SDS011;47551;52.506;4.678;2022-09-14T00:35:36;5.03;;;2.00;;
61642;SDS011;47551;52.506;4.678;2022-09-14T00:36:02;4.73;;;2.00;;
61642;SDS011;47551;52.506;4.678;2022-09-14T00:36:24;4.57;;;1.80;;
61642;SDS011;47551;52.506;4.678;2022-09-14T00:36:45;5.50;;;2.00;;
61642;SDS011;47551;52.506;4.678;2022-09-14T00:37:06;5.13;;;1.90;;
61642;SDS011;47551;52.506;4.678;2022-09-14T00:37:26;5.37;;;1.90;;
61642;SDS011;47551;52.506;4.678;2022-09-14T00:37:52;6.30;;;2.10;;
61642;SDS011;47551;52.506;4.678;2022-09-14T00:38:13;4.68;;;1.92;;
61642;SDS011;47551;52.506;4.678;2022-09-14T00:38:33;4.13;;;1.67;;
61642;SDS011;47551;52.506;4.678;2022-09-14T00:38:53;4.33;;;1.70;;
61642;SDS011;47551;52.506;4.678;2022-09-14T00:39:16;5.28;;;1.90;;
61642;SDS011;47551;52.506;4.678;2022-09-14T00:39:36;5.70;;;1.88;;
61642;SDS011;47551;52.506;4.678;2022-09-14T00:39:56;4.97;;;1.80;;
61642;SDS011;47551;52.506;4.678;2022-09-14T00:40:17;4.30;;;1.80;;
61642;SDS011;47551;52.506;4.678;2022-09-14T00:40:37;4.77;;;1.70;;
61642;SDS011;47551;52.506;4.678;2022-09-14T00:40:58;4.60;;;1.70;;
61642;SDS011;47551;52.506;4.678;2022-09-14T00:41:19;5.75;;;1.73;;
61642;SDS011;47551;52.506;4.678;2022-09-14T00:41:41;4.40;;;1.70;;
61642;SDS011;47551;52.506;4.678;2022-09-14T00:42:02;3.35;;;1.58;;
61642;SDS011;47551;52.506;4.678;2022-09-14T00:42:22;3.88;;;1.60;;
61642;SDS011;47551;52.506;4.678;2022-09-14T00:42:43;4.50;;;1.60;;
61642;SDS011;47551;52.506;4.678;2022-09-14T00:43:04;5.13;;;1.67;;
61642;SDS011;47551;52.506;4.678;2022-09-14T00:43:24;5.05;;;1.70;;
61642;SDS011;47551;52.506;4.678;2022-09-14T00:45:03;4.70;;;1.70;;
61642;SDS011;47551;52.506;4.678;2022-09-14T00:45:24;3.85;;;1.65;;
61642;SDS011;47551;52.506;4.678;2022-09-14T00:45:45;3.23;;;1.60;;
61642;SDS011;47551;52.506;4.678;2022-09-14T00:46:05;4.70;;;1.70;;
61642;SDS011;47551;52.506;4.678;2022-09-14T00:46:26;4.63;;;1.90;;
61642;SDS011;47551;52.506;4.678;2022-09-14T00:46:48;5.68;;;1.80;;
61642;SDS011;47551;52.506;4.678;2022-09-14T00:47:09;6.80;;;1.70;;
61642;SDS011;47551;52.506;4.678;2022-09-14T00:47:31;4.82;;;1.60;;
61642;SDS011;47551;52.506;4.678;2022-09-14T00:47:51;4.47;;;1.70;;
61642;SDS011;47551;52.506;4.678;2022-09-14T00:48:12;4.50;;;1.60;;
61642;SDS011;47551;52.506;4.678;2022-09-14T00:48:32;4.43;;;1.70;;
61642;SDS011;47551;52.506;4.678;2022-09-14T00:48:53;4.65;;;1.60;;
61642;SDS011;47551;52.506;4.678;2022-09-14T00:49:20;4.70;;;1.77;;
61642;SDS011;47551;52.506;4.678;2022-09-14T00:49:41;4.45;;;1.80;;
61642;SDS011;47551;52.506;4.678;2022-09-14T00:50:02;3.50;;;1.70;;
61642;SDS011;47551;52.506;4.678;2022-09-14T00:50:23;3.55;;;1.70;;
61642;SDS011;47551;52.506;4.678;2022-09-14T00:50:43;5.10;;;1.80;;
61642;SDS011;47551;52.506;4.678;2022-09-14T00:51:04;6.18;;;1.75;;
61642;SDS011;47551;52.506;4.678;2022-09-14T00:51:24;5.73;;;1.80;;
61642;SDS011;47551;52.506;4.678;2022-09-14T00:51:49;4.95;;;1.80;;
61642;SDS011;47551;52.506;4.678;2022-09-14T00:52:24;4.18;;;1.73;;
61642;SDS011;47551;52.506;4.678;2022-09-14T00:52:51;3.90;;;1.67;;
61642;SDS011;47551;52.506;4.678;2022-09-14T00:53:11;4.45;;;1.70;;
61642;SDS011;47551;52.506;4.678;2022-09-14T00:53:31;5.10;;;1.80;;
61642;SDS011;47551;52.506;4.678;2022-09-14T00:53:51;4.23;;;2.00;;
61642;SDS011;47551;52.506;4.678;2022-09-14T00:54:12;4.17;;;1.80;;
61642;SDS011;47551;52.506;4.678;2022-09-14T00:54:32;4.10;;;1.80;;
61642;SDS011;47551;52.506;4.678;2022-09-14T00:55:26;4.87;;;1.90;;
61642;SDS011;47551;52.506;4.678;2022-09-14T00:55:39;5.72;;;1.80;;
61642;SDS011;47551;52.506;4.678;2022-09-14T00:55:59;5.23;;;1.70;;
61642;SDS011;47551;52.506;4.678;2022-09-14T00:56:19;4.20;;;1.90;;
61642;SDS011;47551;52.506;4.678;2022-09-14T00:56:40;3.55;;;1.60;;
61642;SDS011;47551;52.506;4.678;2022-09-14T00:57:00;4.70;;;1.77;;
61642;SDS011;47551;52.506;4.678;2022-09-14T00:57:22;4.78;;;1.80;;
61642;SDS011;47551;52.506;4.678;2022-09-14T00:57:44;4.30;;;1.73;;
61642;SDS011;47551;52.506;4.678;2022-09-14T00:58:05;4.75;;;1.80;;
61642;SDS011;47551;52.506;4.678;2022-09-14T00:58:25;4.73;;;1.90;;
61642;SDS011;47551;52.506;4.678;2022-09-14T00:58:49;3.75;;;1.80;;
61642;SDS011;47551;52.506;4.678;2022-09-14T00:59:12;5.40;;;1.65;;
61642;SDS011;47551;52.506;4.678;2022-09-14T00:59:34;4.00;;;1.70;;
61642;SDS011;47551;52.506;4.678;2022-09-14T00:59:55;3.92;;;1.73;;
61642;SDS011;47551;52.506;4.678;2022-09-14T01:00:17;5.38;;;2.00;;
61642;SDS011;47551;52.506;4.678;2022-09-14T01:00:38;5.10;;;1.70;;
61642;SDS011;47551;52.506;4.678;2022-09-14T01:00:59;3.83;;;1.77;;
61642;SDS011;47551;52.506;4.678;2022-09-14T01:01:21;4.15;;;1.80;;
61642;SDS011;47551;52.506;4.678;2022-09-14T01:01:44;5.28;;;1.85;;
61642;SDS011;47551;52.506;4.678;2022-09-14T01:02:08;3.55;;;1.60;;
61642;SDS011;47551;52.506;4.678;2022-09-14T01:02:33;4.93;;;1.70;;
61642;SDS011;47551;52.506;4.678;2022-09-14T01:02:54;4.50;;;1.70;;
61642;SDS011;47551;52.506;4.678;2022-09-14T01:03:14;4.60;;;1.67;;
61642;SDS011;47551;52.506;4.678;2022-09-14T01:03:35;4.47;;;1.63;;
61642;SDS011;47551;52.506;4.678;2022-09-14T01:03:55;5.65;;;1.70;;
61642;SDS011;47551;52.506;4.678;2022-09-14T01:04:15;6.13;;;1.80;;
61642;SDS011;47551;52.506;4.678;2022-09-14T01:04:39;4.60;;;1.80;;
61642;SDS011;47551;52.506;4.678;2022-09-14T01:04:59;5.85;;;1.95;;
61642;SDS011;47551;52.506;4.678;2022-09-14T01:05:22;4.82;;;1.90;;
61642;SDS011;47551;52.506;4.678;2022-09-14T01:06:03;5.70;;;1.70;;
61642;SDS011;47551;52.506;4.678;2022-09-14T01:08:24;3.90;;;1.60;;
61642;SDS011;47551;52.506;4.678;2022-09-14T01:09:00;5.20;;;1.60;;
61642;SDS011;47551;52.506;4.678;2022-09-14T01:09:35;4.70;;;1.70;;
61642;SDS011;47551;52.506;4.678;2022-09-14T01:10:54;4.78;;;1.70;;
61642;SDS011;47551;52.506;4.678;2022-09-14T01:11:22;6.05;;;1.98;;
61642;SDS011;47551;52.506;4.678;2022-09-14T01:12:10;4.90;;;1.77;;
61642;SDS011;47551;52.506;4.678;2022-09-14T01:12:48;4.53;;;1.70;;
61642;SDS011;47551;52.506;4.678;2022-09-14T01:15:02;4.78;;;1.77;;
61642;SDS011;47551;52.506;4.678;2022-09-14T01:15:24;4.82;;;1.80;;
61642;SDS011;47551;52.506;4.678;2022-09-14T01:17:24;4.57;;;1.60;;
61642;SDS011;47551;52.506;4.678;2022-09-14T01:18:07;4.75;;;1.52;;
61642;SDS011;47551;52.506;4.678;2022-09-14T01:18:44;5.13;;;1.70;;
61642;SDS011;47551;52.506;4.678;2022-09-14T01:19:09;3.78;;;1.50;;
61642;SDS011;47551;52.506;4.678;2022-09-14T01:19:40;3.80;;;1.80;;
61642;SDS011;47551;52.506;4.678;2022-09-14T01:20:32;4.22;;;1.70;;
61642;SDS011;47551;52.506;4.678;2022-09-14T01:21:01;3.63;;;1.60;;
61642;SDS011;47551;52.506;4.678;2022-09-14T01:21:23;4.63;;;1.88;;
61642;SDS011;47551;52.506;4.678;2022-09-14T01:21:45;5.07;;;1.70;;
61642;SDS011;47551;52.506;4.678;2022-09-14T01:22:56;3.88;;;1.70;;
61642;SDS011;47551;52.506;4.678;2022-09-14T01:24:25;4.55;;;1.73;;
61642;SDS011;47551;52.506;4.678;2022-09-14T01:24:54;4.50;;;1.85;;
61642;SDS011;47551;52.506;4.678;2022-09-14T01:27:52;4.60;;;1.83;;
61642;SDS011;47551;52.506;4.678;2022-09-14T01:28:09;4.45;;;1.67;;
61642;SDS011;47551;52.506;4.678;2022-09-14T01:28:31;4.85;;;1.85;;
61642;SDS011;47551;52.506;4.678;2022-09-14T01:28:56;4.97;;;1.80;;
61642;SDS011;47551;52.506;4.678;2022-09-14T01:30:42;3.15;;;1.58;;
61642;SDS011;47551;52.506;4.678;2022-09-14T01:31:05;4.38;;;1.80;;
61642;SDS011;47551;52.506;4.678;2022-09-14T01:31:29;5.53;;;1.73;;
61642;SDS011;47551;52.506;4.678;2022-09-14T01:32:01;4.13;;;1.58;;
61642;SDS011;47551;52.506;4.678;2022-09-14T01:32:27;5.03;;;1.70;;
61642;SDS011;47551;52.506;4.678;2022-09-14T01:32:56;5.03;;;1.83;;
61642;SDS011;47551;52.506;4.678;2022-09-14T01:33:18;4.78;;;1.90;;
61642;SDS011;47551;52.506;4.678;2022-09-14T01:33:42;4.90;;;2.00;;
61642;SDS011;47551;52.506;4.678;2022-09-14T01:34:12;4.75;;;1.90;;
61642;SDS011;47551;52.506;4.678;2022-09-14T01:34:35;4.10;;;1.65;;
61642;SDS011;47551;52.506;4.678;2022-09-14T01:35:03;4.38;;;1.73;;
61642;SDS011;47551;52.506;4.678;2022-09-14T01:35:29;5.10;;;1.80;;
61642;SDS011;47551;52.506;4.678;2022-09-14T01:35:51;4.07;;;1.85;;
61642;SDS011;47551;52.506;4.678;2022-09-14T01:36:13;4.05;;;1.73;;
61642;SDS011;47551;52.506;4.678;2022-09-14T01:36:34;4.63;;;1.80;;
61642;SDS011;47551;52.506;4.678;2022-09-14T01:36:57;5.50;;;1.90;;
61642;SDS011;47551;52.506;4.678;2022-09-14T01:37:24;5.60;;;1.80;;
61642;SDS011;47551;52.506;4.678;2022-09-14T01:37:57;4.18;;;1.80;;
61642;SDS011;47551;52.506;4.678;2022-09-14T01:38:25;4.45;;;1.65;;
61642;SDS011;47551;52.506;4.678;2022-09-14T01:38:47;4.20;;;1.88;;
61642;SDS011;47551;52.506;4.678;2022-09-14T01:39:08;4.00;;;1.75;;
61642;SDS011;47551;52.506;4.678;2022-09-14T01:39:30;4.00;;;1.65;;
61642;SDS011;47551;52.506;4.678;2022-09-14T01:39:53;4.45;;;1.67;;
61642;SDS011;47551;52.506;4.678;2022-09-14T01:40:19;3.60;;;1.65;;
61642;SDS011;47551;52.506;4.678;2022-09-14T01:40:44;4.38;;;1.75;;
61642;SDS011;47551;52.506;4.678;2022-09-14T01:41:08;4.82;;;1.73;;
61642;SDS011;47551;52.506;4.678;2022-09-14T01:41:32;5.85;;;1.83;;
61642;SDS011;47551;52.506;4.678;2022-09-14T01:41:52;6.60;;;2.00;;
61642;SDS011;47551;52.506;4.678;2022-09-14T01:42:13;4.90;;;1.70;;
61642;SDS011;47551;52.506;4.678;2022-09-14T01:42:33;6.15;;;1.80;;
61642;SDS011;47551;52.506;4.678;2022-09-14T01:43:08;5.43;;;1.70;;
61642;SDS011;47551;52.506;4.678;2022-09-14T01:43:33;5.20;;;1.85;;
61642;SDS011;47551;52.506;4.678;2022-09-14T01:44:26;3.38;;;1.70;;
61642;SDS011;47551;52.506;4.678;2022-09-14T01:44:50;4.15;;;1.80;;
61642;SDS011;47551;52.506;4.678;2022-09-14T01:45:13;5.28;;;1.77;;
61642;SDS011;47551;52.506;4.678;2022-09-14T01:45:37;6.68;;;1.80;;
61642;SDS011;47551;52.506;4.678;2022-09-14T01:46:05;5.75;;;1.73;;
61642;SDS011;47551;52.506;4.678;2022-09-14T01:46:33;4.20;;;1.65;;
61642;SDS011;47551;52.506;4.678;2022-09-14T01:46:56;4.63;;;1.70;;
61642;SDS011;47551;52.506;4.678;2022-09-14T01:47:23;5.35;;;2.00;;
61642;SDS011;47551;52.506;4.678;2022-09-14T01:47:56;4.63;;;1.83;;
61642;SDS011;47551;52.506;4.678;2022-09-14T01:48:19;3.75;;;1.80;;
61642;SDS011;47551;52.506;4.678;2022-09-14T01:50:25;5.43;;;1.80;;
61642;SDS011;47551;52.506;4.678;2022-09-14T01:50:46;4.10;;;1.88;;
61642;SDS011;47551;52.506;4.678;2022-09-14T01:51:09;4.60;;;1.85;;
61642;SDS011;47551;52.506;4.678;2022-09-14T01:51:38;4.57;;;1.60;;
61642;SDS011;47551;52.506;4.678;2022-09-14T01:52:01;5.53;;;1.90;;
61642;SDS011;47551;52.506;4.678;2022-09-14T01:52:24;5.05;;;1.70;;
61642;SDS011;47551;52.506;4.678;2022-09-14T01:52:47;5.25;;;1.88;;
61642;SDS011;47551;52.506;4.678;2022-09-14T01:53:23;4.63;;;1.58;;
61642;SDS011;47551;52.506;4.678;2022-09-14T01:53:49;4.82;;;1.80;;
61642;SDS011;47551;52.506;4.678;2022-09-14T01:55:13;5.43;;;1.80;;
61642;SDS011;47551;52.506;4.678;2022-09-14T01:55:38;5.63;;;1.70;;
61642;SDS011;47551;52.506;4.678;2022-09-14T01:56:29;4.28;;;1.70;;
61642;SDS011;47551;52.506;4.678;2022-09-14T01:56:55;4.40;;;1.75;;
61642;SDS011;47551;52.506;4.678;2022-09-14T01:57:21;4.95;;;1.75;;
61642;SDS011;47551;52.506;4.678;2022-09-14T01:57:43;5.55;;;1.70;;
61642;SDS011;47551;52.506;4.678;2022-09-14T01:58:11;4.80;;;1.70;;
61642;SDS011;47551;52.506;4.678;2022-09-14T01:58:56;4.33;;;1.77;;
61642;SDS011;47551;52.506;4.678;2022-09-14T01:59:20;5.13;;;1.80;;
61642;SDS011;47551;52.506;4.678;2022-09-14T01:59:42;4.00;;;1.70;;
61642;SDS011;47551;52.506;4.678;2022-09-14T02:00:12;3.72;;;1.70;;
61642;SDS011;47551;52.506;4.678;2022-09-14T02:00:35;4.32;;;1.90;;
61642;SDS011;47551;52.506;4.678;2022-09-14T02:01:02;3.78;;;1.88;;
61642;SDS011;47551;52.506;4.678;2022-09-14T02:01:27;4.45;;;1.83;;
61642;SDS011;47551;52.506;4.678;2022-09-14T02:01:54;4.00;;;2.03;;
61642;SDS011;47551;52.506;4.678;2022-09-14T02:02:40;4.03;;;1.52;;
61642;SDS011;47551;52.506;4.678;2022-09-14T02:03:04;3.63;;;1.70;;
61642;SDS011;47551;52.506;4.678;2022-09-14T02:03:26;4.32;;;1.85;;
61642;SDS011;47551;52.506;4.678;2022-09-14T02:03:51;5.55;;;2.00;;
61642;SDS011;47551;52.506;4.678;2022-09-14T02:04:15;4.72;;;1.77;;
61642;SDS011;47551;52.506;4.678;2022-09-14T02:05:01;4.80;;;1.80;;
61642;SDS011;47551;52.506;4.678;2022-09-14T02:05:27;4.07;;;1.70;;
61642;SDS011;47551;52.506;4.678;2022-09-14T02:06:18;4.35;;;1.70;;
61642;SDS011;47551;52.506;4.678;2022-09-14T02:06:45;4.15;;;1.60;;
61642;SDS011;47551;52.506;4.678;2022-09-14T02:07:06;3.45;;;1.60;;
61642;SDS011;47551;52.506;4.678;2022-09-14T02:07:26;4.10;;;1.80;;
61642;SDS011;47551;52.506;4.678;2022-09-14T02:07:46;4.43;;;1.80;;
61642;SDS011;47551;52.506;4.678;2022-09-14T02:08:06;5.53;;;1.90;;
61642;SDS011;47551;52.506;4.678;2022-09-14T02:08:28;5.50;;;1.77;;
61642;SDS011;47551;52.506;4.678;2022-09-14T02:08:49;4.88;;;1.85;;
61642;SDS011;47551;52.506;4.678;2022-09-14T02:09:11;4.65;;;2.00;;
61642;SDS011;47551;52.506;4.678;2022-09-14T02:09:32;4.50;;;2.00;;
61642;SDS011;47551;52.506;4.678;2022-09-14T02:09:53;3.47;;;1.77;;
61642;SDS011;47551;52.506;4.678;2022-09-14T02:10:14;4.63;;;1.70;;
61642;SDS011;47551;52.506;4.678;2022-09-14T02:10:35;4.75;;;1.65;;
61642;SDS011;47551;52.506;4.678;2022-09-14T02:10:56;4.63;;;1.90;;
61642;SDS011;47551;52.506;4.678;2022-09-14T02:11:17;3.90;;;1.73;;
61642;SDS011;47551;52.506;4.678;2022-09-14T02:11:37;3.97;;;1.70;;
61642;SDS011;47551;52.506;4.678;2022-09-14T02:11:57;4.93;;;1.80;;
61642;SDS011;47551;52.506;4.678;2022-09-14T02:12:19;5.40;;;2.03;;
61642;SDS011;47551;52.506;4.678;2022-09-14T02:12:41;4.68;;;1.90;;
61642;SDS011;47551;52.506;4.678;2022-09-14T02:13:01;4.47;;;1.90;;
61642;SDS011;47551;52.506;4.678;2022-09-14T02:13:22;5.47;;;2.03;;
61642;SDS011;47551;52.506;4.678;2022-09-14T02:13:42;4.28;;;1.80;;
61642;SDS011;47551;52.506;4.678;2022-09-14T02:14:03;4.80;;;1.80;;
61642;SDS011;47551;52.506;4.678;2022-09-14T02:14:23;4.47;;;1.80;;
61642;SDS011;47551;52.506;4.678;2022-09-14T02:14:44;4.00;;;1.70;;
61642;SDS011;47551;52.506;4.678;2022-09-14T02:15:05;3.78;;;1.80;;
61642;SDS011;47551;52.506;4.678;2022-09-14T02:15:26;4.32;;;1.70;;
61642;SDS011;47551;52.506;4.678;2022-09-14T02:15:46;3.65;;;1.60;;
61642;SDS011;47551;52.506;4.678;2022-09-14T02:16:06;3.67;;;1.73;;
61642;SDS011;47551;52.506;4.678;2022-09-14T02:16:27;4.70;;;1.85;;
61642;SDS011;47551;52.506;4.678;2022-09-14T02:16:50;4.78;;;1.70;;
61642;SDS011;47551;52.506;4.678;2022-09-14T02:17:13;4.57;;;1.60;;
61642;SDS011;47551;52.506;4.678;2022-09-14T02:17:33;5.53;;;1.70;;
61642;SDS011;47551;52.506;4.678;2022-09-14T02:17:54;4.63;;;1.63;;
61642;SDS011;47551;52.506;4.678;2022-09-14T02:18:14;4.70;;;1.67;;
61642;SDS011;47551;52.506;4.678;2022-09-14T02:18:34;4.30;;;1.60;;
61642;SDS011;47551;52.506;4.678;2022-09-14T02:18:56;4.50;;;1.60;;
61642;SDS011;47551;52.506;4.678;2022-09-14T02:19:18;5.07;;;1.67;;
61642;SDS011;47551;52.506;4.678;2022-09-14T02:20:12;5.47;;;1.77;;
61642;SDS011;47551;52.506;4.678;2022-09-14T02:20:36;4.00;;;1.70;;
61642;SDS011;47551;52.506;4.678;2022-09-14T02:21:17;4.55;;;1.70;;
61642;SDS011;47551;52.506;4.678;2022-09-14T02:21:40;4.32;;;1.85;;
61642;SDS011;47551;52.506;4.678;2022-09-14T02:22:01;4.28;;;1.80;;
61642;SDS011;47551;52.506;4.678;2022-09-14T02:22:22;5.37;;;1.83;;
61642;SDS011;47551;52.506;4.678;2022-09-14T02:22:46;3.55;;;1.60;;
61642;SDS011;47551;52.506;4.678;2022-09-14T02:23:09;3.25;;;1.60;;
61642;SDS011;47551;52.506;4.678;2022-09-14T02:23:29;4.72;;;1.70;;
61642;SDS011;47551;52.506;4.678;2022-09-14T02:23:49;5.53;;;2.00;;
61642;SDS011;47551;52.506;4.678;2022-09-14T02:24:10;5.23;;;2.00;;
61642;SDS011;47551;52.506;4.678;2022-09-14T02:24:30;4.07;;;1.60;;
61642;SDS011;47551;52.506;4.678;2022-09-14T02:24:56;5.40;;;1.90;;
61642;SDS011;47551;52.506;4.678;2022-09-14T02:25:17;5.03;;;1.83;;
61642;SDS011;47551;52.506;4.678;2022-09-14T02:25:38;4.80;;;1.90;;
61642;SDS011;47551;52.506;4.678;2022-09-14T02:26:00;4.82;;;1.80;;
61642;SDS011;47551;52.506;4.678;2022-09-14T02:26:21;3.83;;;1.80;;
61642;SDS011;47551;52.506;4.678;2022-09-14T02:26:41;3.50;;;1.65;;
61642;SDS011;47551;52.506;4.678;2022-09-14T02:27:01;3.85;;;1.70;;
61642;SDS011;47551;52.506;4.678;2022-09-14T02:27:22;4.73;;;1.80;;
61642;SDS011;47551;52.506;4.678;2022-09-14T02:27:42;4.60;;;1.60;;
61642;SDS011;47551;52.506;4.678;2022-09-14T02:28:03;3.90;;;1.60;;
61642;SDS011;47551;52.506;4.678;2022-09-14T02:28:26;3.55;;;1.80;;
61642;SDS011;47551;52.506;4.678;2022-09-14T02:28:46;3.70;;;1.83;;
61642;SDS011;47551;52.506;4.678;2022-09-14T02:29:07;3.73;;;1.60;;
61642;SDS011;47551;52.506;4.678;2022-09-14T02:29:27;5.23;;;1.83;;
61642;SDS011;47551;52.506;4.678;2022-09-14T02:29:47;5.38;;;1.75;;
61642;SDS011;47551;52.506;4.678;2022-09-14T02:30:08;4.67;;;1.70;;
61642;SDS011;47551;52.506;4.678;2022-09-14T02:30:29;4.68;;;1.60;;
61642;SDS011;47551;52.506;4.678;2022-09-14T02:32:30;4.22;;;1.85;;
61642;SDS011;47551;52.506;4.678;2022-09-14T02:33:25;5.20;;;1.60;;
61642;SDS011;47551;52.506;4.678;2022-09-14T02:34:00;4.68;;;1.60;;
61642;SDS011;47551;52.506;4.678;2022-09-14T02:34:25;3.20;;;1.60;;
61642;SDS011;47551;52.506;4.678;2022-09-14T02:35:03;4.25;;;1.55;;
61642;SDS011;47551;52.506;4.678;2022-09-14T02:35:35;3.35;;;1.63;;
61642;SDS011;47551;52.506;4.678;2022-09-14T02:36:01;4.22;;;1.67;;
61642;SDS011;47551;52.506;4.678;2022-09-14T02:36:35;3.92;;;1.60;;
61642;SDS011;47551;52.506;4.678;2022-09-14T02:37:15;4.20;;;1.50;;
61642;SDS011;47551;52.506;4.678;2022-09-14T02:38:00;4.13;;;1.60;;
61642;SDS011;47551;52.506;4.678;2022-09-14T02:38:32;4.80;;;1.50;;
61642;SDS011;47551;52.506;4.678;2022-09-14T02:38:56;3.92;;;1.58;;
61642;SDS011;47551;52.506;4.678;2022-09-14T02:39:23;3.28;;;1.33;;
61642;SDS011;47551;52.506;4.678;2022-09-14T02:40:05;4.30;;;1.40;;
61642;SDS011;47551;52.506;4.678;2022-09-14T02:41:53;2.92;;;1.30;;
61642;SDS011;47551;52.506;4.678;2022-09-14T02:42:18;4.35;;;1.60;;
61642;SDS011;47551;52.506;4.678;2022-09-14T02:43:30;5.57;;;1.60;;